sensor_id;sensor_type;location;lat;lon;timestamp;P1;durP1;ratioP1;P2;durP2;ratioP2
11131;SDS011;5620;53.570;9.718;2024-03-22T00:00:54;10.83;;;5.53;;
11131;SDS011;5620;53.570;9.718;2024-03-22T00:03:20;6.07;;;5.53;;
11131;SDS011;5620;53.570;9.718;2024-03-22T00:05:45;6.93;;;5.40;;
11131;SDS011;5620;53.570;9.718;2024-03-22T00:08:11;8.47;;;6.00;;
11131;SDS011;5620;53.570;9.718;2024-03-22T00:10:36;7.17;;;5.80;;
11131;SDS011;5620;53.570;9.718;2024-03-22T00:13:02;10.68;;;6.70;;
11131;SDS011;5620;53.570;9.718;2024-03-22T00:15:28;6.13;;;5.00;;
11131;SDS011;5620;53.570;9.718;2024-03-22T00:17:53;7.18;;;6.47;;
11131;SDS011;5620;53.570;9.718;2024-03-22T00:20:19;7.35;;;5.70;;
11131;SDS011;5620;53.570;9.718;2024-03-22T00:22:44;7.17;;;6.33;;
11131;SDS011;5620;53.570;9.718;2024-03-22T00:25:10;7.60;;;6.00;;
11131;SDS011;5620;53.570;9.718;2024-03-22T00:27:35;9.80;;;6.40;;
11131;SDS011;5620;53.570;9.718;2024-03-22T00:30:01;17.93;;;7.30;;
11131;SDS011;5620;53.570;9.718;2024-03-22T00:32:26;9.07;;;6.63;;
11131;SDS011;5620;53.570;9.718;2024-03-22T00:34:52;8.23;;;6.95;;
11131;SDS011;5620;53.570;9.718;2024-03-22T00:37:17;6.13;;;5.63;;
11131;SDS011;5620;53.570;9.718;2024-03-22T00:39:43;5.87;;;5.27;;
11131;SDS011;5620;53.570;9.718;2024-03-22T00:42:09;5.07;;;4.63;;
11131;SDS011;5620;53.570;9.718;2024-03-22T00:44:34;12.87;;;5.90;;
11131;SDS011;5620;53.570;9.718;2024-03-22T00:47:00;9.52;;;5.60;;
11131;SDS011;5620;53.570;9.718;2024-03-22T00:49:25;9.27;;;6.57;;
11131;SDS011;5620;53.570;9.718;2024-03-22T00:51:51;7.00;;;6.23;;
11131;SDS011;5620;53.570;9.718;2024-03-22T00:54:16;8.45;;;6.15;;
11131;SDS011;5620;53.570;9.718;2024-03-22T00:56:42;6.80;;;5.55;;
11131;SDS011;5620;53.570;9.718;2024-03-22T00:59:07;9.00;;;6.70;;
11131;SDS011;5620;53.570;9.718;2024-03-22T01:01:33;12.80;;;7.17;;
11131;SDS011;5620;53.570;9.718;2024-03-22T01:03:58;9.60;;;6.78;;
11131;SDS011;5620;53.570;9.718;2024-03-22T01:06:24;14.90;;;7.47;;
11131;SDS011;5620;53.570;9.718;2024-03-22T01:08:49;7.67;;;6.97;;
11131;SDS011;5620;53.570;9.718;2024-03-22T01:11:15;8.05;;;6.25;;
11131;SDS011;5620;53.570;9.718;2024-03-22T01:13:41;15.10;;;7.83;;
11131;SDS011;5620;53.570;9.718;2024-03-22T01:16:06;8.93;;;7.77;;
11131;SDS011;5620;53.570;9.718;2024-03-22T01:18:32;9.27;;;7.20;;
11131;SDS011;5620;53.570;9.718;2024-03-22T01:20:57;11.80;;;7.43;;
11131;SDS011;5620;53.570;9.718;2024-03-22T01:23:23;9.83;;;7.37;;
11131;SDS011;5620;53.570;9.718;2024-03-22T01:25:48;11.98;;;6.25;;
11131;SDS011;5620;53.570;9.718;2024-03-22T01:28:14;10.52;;;7.75;;
11131;SDS011;5620;53.570;9.718;2024-03-22T01:30:39;11.13;;;5.87;;
11131;SDS011;5620;53.570;9.718;2024-03-22T01:33:05;9.10;;;7.20;;
11131;SDS011;5620;53.570;9.718;2024-03-22T01:35:30;12.77;;;7.50;;
11131;SDS011;5620;53.570;9.718;2024-03-22T01:37:56;8.30;;;7.37;;
11131;SDS011;5620;53.570;9.718;2024-03-22T01:40:21;12.17;;;7.53;;
11131;SDS011;5620;53.570;9.718;2024-03-22T01:42:47;11.48;;;8.00;;
11131;SDS011;5620;53.570;9.718;2024-03-22T01:45:13;9.33;;;7.20;;
11131;SDS011;5620;53.570;9.718;2024-03-22T01:47:39;6.85;;;6.18;;
11131;SDS011;5620;53.570;9.718;2024-03-22T01:50:05;6.97;;;6.30;;
11131;SDS011;5620;53.570;9.718;2024-03-22T01:52:32;9.68;;;8.30;;
11131;SDS011;5620;53.570;9.718;2024-03-22T01:54:58;10.20;;;8.05;;
11131;SDS011;5620;53.570;9.718;2024-03-22T01:57:23;18.80;;;9.77;;
11131;SDS011;5620;53.570;9.718;2024-03-22T01:59:49;10.60;;;8.37;;
11131;SDS011;5620;53.570;9.718;2024-03-22T02:02:18;8.23;;;6.45;;
11131;SDS011;5620;53.570;9.718;2024-03-22T02:04:44;8.27;;;7.55;;
11131;SDS011;5620;53.570;9.718;2024-03-22T02:07:09;11.50;;;10.15;;
11131;SDS011;5620;53.570;9.718;2024-03-22T02:09:35;7.17;;;5.73;;
11131;SDS011;5620;53.570;9.718;2024-03-22T02:12:00;9.60;;;8.13;;
11131;SDS011;5620;53.570;9.718;2024-03-22T02:14:26;11.95;;;9.48;;
11131;SDS011;5620;53.570;9.718;2024-03-22T02:16:52;13.07;;;11.60;;
11131;SDS011;5620;53.570;9.718;2024-03-22T02:19:17;12.65;;;8.93;;
11131;SDS011;5620;53.570;9.718;2024-03-22T02:21:43;12.73;;;8.88;;
11131;SDS011;5620;53.570;9.718;2024-03-22T02:24:08;9.70;;;8.70;;
11131;SDS011;5620;53.570;9.718;2024-03-22T02:26:34;20.45;;;10.00;;
11131;SDS011;5620;53.570;9.718;2024-03-22T02:28:59;12.03;;;9.03;;
11131;SDS011;5620;53.570;9.718;2024-03-22T02:31:25;10.37;;;9.33;;
11131;SDS011;5620;53.570;9.718;2024-03-22T02:33:51;12.57;;;11.05;;
11131;SDS011;5620;53.570;9.718;2024-03-22T02:36:17;15.88;;;12.60;;
11131;SDS011;5620;53.570;9.718;2024-03-22T02:38:43;15.15;;;11.23;;
11131;SDS011;5620;53.570;9.718;2024-03-22T02:41:08;13.87;;;12.03;;
11131;SDS011;5620;53.570;9.718;2024-03-22T02:43:34;16.67;;;12.87;;
11131;SDS011;5620;53.570;9.718;2024-03-22T02:45:59;17.40;;;11.38;;
11131;SDS011;5620;53.570;9.718;2024-03-22T02:48:25;10.88;;;7.57;;
11131;SDS011;5620;53.570;9.718;2024-03-22T02:50:54;14.00;;;11.43;;
11131;SDS011;5620;53.570;9.718;2024-03-22T02:53:21;15.68;;;11.48;;
11131;SDS011;5620;53.570;9.718;2024-03-22T02:55:46;15.33;;;12.37;;
11131;SDS011;5620;53.570;9.718;2024-03-22T02:58:12;18.65;;;14.60;;
11131;SDS011;5620;53.570;9.718;2024-03-22T03:00:37;12.17;;;10.23;;
11131;SDS011;5620;53.570;9.718;2024-03-22T03:03:06;20.25;;;13.80;;
11131;SDS011;5620;53.570;9.718;2024-03-22T03:05:32;19.40;;;14.20;;
11131;SDS011;5620;53.570;9.718;2024-03-22T03:07:58;19.75;;;15.02;;
11131;SDS011;5620;53.570;9.718;2024-03-22T03:10:24;20.58;;;14.35;;
11131;SDS011;5620;53.570;9.718;2024-03-22T03:12:49;18.85;;;13.50;;
11131;SDS011;5620;53.570;9.718;2024-03-22T03:15:15;21.77;;;15.23;;
11131;SDS011;5620;53.570;9.718;2024-03-22T03:17:42;24.58;;;14.32;;
11131;SDS011;5620;53.570;9.718;2024-03-22T03:20:08;13.35;;;10.52;;
11131;SDS011;5620;53.570;9.718;2024-03-22T03:22:34;21.73;;;14.23;;
11131;SDS011;5620;53.570;9.718;2024-03-22T03:25:00;14.10;;;11.77;;
11131;SDS011;5620;53.570;9.718;2024-03-22T03:27:25;25.53;;;17.33;;
11131;SDS011;5620;53.570;9.718;2024-03-22T03:29:51;21.20;;;15.27;;
11131;SDS011;5620;53.570;9.718;2024-03-22T03:32:16;21.90;;;14.15;;
11131;SDS011;5620;53.570;9.718;2024-03-22T03:34:42;23.97;;;15.63;;
11131;SDS011;5620;53.570;9.718;2024-03-22T03:37:07;20.53;;;13.60;;
11131;SDS011;5620;53.570;9.718;2024-03-22T03:39:33;19.02;;;14.07;;
11131;SDS011;5620;53.570;9.718;2024-03-22T03:41:58;19.27;;;15.03;;
11131;SDS011;5620;53.570;9.718;2024-03-22T03:44:24;27.67;;;16.70;;
11131;SDS011;5620;53.570;9.718;2024-03-22T03:46:49;23.60;;;16.38;;
11131;SDS011;5620;53.570;9.718;2024-03-22T03:49:15;20.80;;;14.97;;
11131;SDS011;5620;53.570;9.718;2024-03-22T03:51:40;25.33;;;17.83;;
11131;SDS011;5620;53.570;9.718;2024-03-22T03:54:06;25.30;;;17.45;;
11131;SDS011;5620;53.570;9.718;2024-03-22T03:56:31;27.83;;;17.88;;
11131;SDS011;5620;53.570;9.718;2024-03-22T03:58:57;24.37;;;16.53;;
11131;SDS011;5620;53.570;9.718;2024-03-22T04:01:22;31.27;;;17.97;;
11131;SDS011;5620;53.570;9.718;2024-03-22T04:03:48;28.80;;;18.30;;
11131;SDS011;5620;53.570;9.718;2024-03-22T04:06:14;25.50;;;18.07;;
11131;SDS011;5620;53.570;9.718;2024-03-22T04:08:39;25.65;;;18.08;;
11131;SDS011;5620;53.570;9.718;2024-03-22T04:11:05;28.40;;;15.93;;
11131;SDS011;5620;53.570;9.718;2024-03-22T04:13:31;29.40;;;19.80;;
11131;SDS011;5620;53.570;9.718;2024-03-22T04:15:58;26.48;;;17.85;;
11131;SDS011;5620;53.570;9.718;2024-03-22T04:18:24;27.85;;;19.38;;
11131;SDS011;5620;53.570;9.718;2024-03-22T04:20:53;31.83;;;19.00;;
11131;SDS011;5620;53.570;9.718;2024-03-22T04:23:20;28.48;;;19.65;;
11131;SDS011;5620;53.570;9.718;2024-03-22T04:25:55;26.38;;;18.70;;
11131;SDS011;5620;53.570;9.718;2024-03-22T04:28:22;27.55;;;20.08;;
11131;SDS011;5620;53.570;9.718;2024-03-22T04:31:21;29.70;;;18.57;;
11131;SDS011;5620;53.570;9.718;2024-03-22T04:33:39;29.67;;;19.00;;
11131;SDS011;5620;53.570;9.718;2024-03-22T04:36:05;28.67;;;19.40;;
11131;SDS011;5620;53.570;9.718;2024-03-22T04:38:31;29.42;;;20.50;;
11131;SDS011;5620;53.570;9.718;2024-03-22T04:40:57;26.75;;;17.35;;
11131;SDS011;5620;53.570;9.718;2024-03-22T04:43:23;31.77;;;21.97;;
11131;SDS011;5620;53.570;9.718;2024-03-22T04:45:49;36.20;;;22.15;;
11131;SDS011;5620;53.570;9.718;2024-03-22T04:48:16;32.92;;;22.25;;
11131;SDS011;5620;53.570;9.718;2024-03-22T04:50:43;31.52;;;21.27;;
11131;SDS011;5620;53.570;9.718;2024-03-22T04:53:10;34.67;;;20.97;;
11131;SDS011;5620;53.570;9.718;2024-03-22T04:55:35;26.45;;;16.15;;
11131;SDS011;5620;53.570;9.718;2024-03-22T04:58:01;31.17;;;22.60;;
11131;SDS011;5620;53.570;9.718;2024-03-22T05:00:30;31.58;;;20.65;;
11131;SDS011;5620;53.570;9.718;2024-03-22T05:02:55;31.95;;;19.98;;
11131;SDS011;5620;53.570;9.718;2024-03-22T05:05:21;25.37;;;15.33;;
11131;SDS011;5620;53.570;9.718;2024-03-22T05:07:46;30.50;;;19.80;;
11131;SDS011;5620;53.570;9.718;2024-03-22T05:10:12;21.80;;;15.50;;
11131;SDS011;5620;53.570;9.718;2024-03-22T05:12:38;32.27;;;21.40;;
11131;SDS011;5620;53.570;9.718;2024-03-22T05:15:04;36.22;;;21.10;;
11131;SDS011;5620;53.570;9.718;2024-03-22T05:17:31;31.17;;;18.05;;
11131;SDS011;5620;53.570;9.718;2024-03-22T05:19:56;29.63;;;20.80;;
11131;SDS011;5620;53.570;9.718;2024-03-22T05:22:22;30.10;;;21.17;;
11131;SDS011;5620;53.570;9.718;2024-03-22T05:24:48;26.20;;;17.63;;
11131;SDS011;5620;53.570;9.718;2024-03-22T05:27:13;37.00;;;22.03;;
11131;SDS011;5620;53.570;9.718;2024-03-22T05:29:39;25.00;;;17.10;;
11131;SDS011;5620;53.570;9.718;2024-03-22T05:32:04;26.53;;;15.33;;
11131;SDS011;5620;53.570;9.718;2024-03-22T05:34:30;41.50;;;23.50;;
11131;SDS011;5620;53.570;9.718;2024-03-22T05:36:56;32.53;;;22.10;;
11131;SDS011;5620;53.570;9.718;2024-03-22T05:39:21;25.20;;;17.17;;
11131;SDS011;5620;53.570;9.718;2024-03-22T05:41:47;32.33;;;21.80;;
11131;SDS011;5620;53.570;9.718;2024-03-22T05:44:12;34.58;;;22.35;;
11131;SDS011;5620;53.570;9.718;2024-03-22T05:46:38;23.73;;;15.83;;
11131;SDS011;5620;53.570;9.718;2024-03-22T05:49:03;32.30;;;20.47;;
11131;SDS011;5620;53.570;9.718;2024-03-22T05:51:29;34.70;;;22.05;;
11131;SDS011;5620;53.570;9.718;2024-03-22T05:53:54;37.27;;;20.90;;
11131;SDS011;5620;53.570;9.718;2024-03-22T05:56:20;38.93;;;22.97;;
11131;SDS011;5620;53.570;9.718;2024-03-22T05:58:45;42.50;;;26.77;;
11131;SDS011;5620;53.570;9.718;2024-03-22T06:01:11;28.20;;;19.50;;
11131;SDS011;5620;53.570;9.718;2024-03-22T06:03:36;37.00;;;22.73;;
11131;SDS011;5620;53.570;9.718;2024-03-22T06:06:02;36.22;;;23.63;;
11131;SDS011;5620;53.570;9.718;2024-03-22T06:08:28;32.73;;;20.90;;
11131;SDS011;5620;53.570;9.718;2024-03-22T06:10:54;41.65;;;24.05;;
11131;SDS011;5620;53.570;9.718;2024-03-22T06:13:20;31.05;;;20.38;;
11131;SDS011;5620;53.570;9.718;2024-03-22T06:15:48;30.30;;;21.63;;
11131;SDS011;5620;53.570;9.718;2024-03-22T06:18:14;37.15;;;22.38;;
11131;SDS011;5620;53.570;9.718;2024-03-22T06:20:40;33.23;;;21.40;;
11131;SDS011;5620;53.570;9.718;2024-03-22T06:23:05;36.20;;;23.67;;
11131;SDS011;5620;53.570;9.718;2024-03-22T06:25:32;32.42;;;20.88;;
11131;SDS011;5620;53.570;9.718;2024-03-22T06:27:57;33.67;;;22.60;;
11131;SDS011;5620;53.570;9.718;2024-03-22T06:30:23;34.60;;;24.03;;
11131;SDS011;5620;53.570;9.718;2024-03-22T06:32:48;35.60;;;21.95;;
11131;SDS011;5620;53.570;9.718;2024-03-22T06:35:14;38.20;;;23.73;;
11131;SDS011;5620;53.570;9.718;2024-03-22T06:37:40;36.97;;;22.87;;
11131;SDS011;5620;53.570;9.718;2024-03-22T06:40:06;39.00;;;24.00;;
11131;SDS011;5620;53.570;9.718;2024-03-22T06:42:35;36.53;;;19.15;;
11131;SDS011;5620;53.570;9.718;2024-03-22T06:45:00;37.25;;;22.38;;
11131;SDS011;5620;53.570;9.718;2024-03-22T06:47:27;35.55;;;21.02;;
11131;SDS011;5620;53.570;9.718;2024-03-22T06:49:52;40.37;;;24.23;;
11131;SDS011;5620;53.570;9.718;2024-03-22T06:52:18;39.73;;;24.13;;
11131;SDS011;5620;53.570;9.718;2024-03-22T06:54:43;42.95;;;25.77;;
11131;SDS011;5620;53.570;9.718;2024-03-22T06:57:09;38.83;;;24.10;;
11131;SDS011;5620;53.570;9.718;2024-03-22T06:59:35;33.35;;;20.60;;
11131;SDS011;5620;53.570;9.718;2024-03-22T07:02:00;39.00;;;23.27;;
11131;SDS011;5620;53.570;9.718;2024-03-22T07:04:26;32.87;;;20.13;;
11131;SDS011;5620;53.570;9.718;2024-03-22T07:06:51;35.28;;;21.52;;
11131;SDS011;5620;53.570;9.718;2024-03-22T07:09:17;41.83;;;23.67;;
11131;SDS011;5620;53.570;9.718;2024-03-22T07:11:43;43.00;;;25.10;;
11131;SDS011;5620;53.570;9.718;2024-03-22T07:14:08;42.25;;;21.70;;
11131;SDS011;5620;53.570;9.718;2024-03-22T07:16:34;33.47;;;20.90;;
11131;SDS011;5620;53.570;9.718;2024-03-22T07:18:59;38.25;;;22.33;;
11131;SDS011;5620;53.570;9.718;2024-03-22T07:21:25;28.27;;;19.15;;
11131;SDS011;5620;53.570;9.718;2024-03-22T07:23:50;36.93;;;23.57;;
11131;SDS011;5620;53.570;9.718;2024-03-22T07:26:16;35.70;;;23.40;;
11131;SDS011;5620;53.570;9.718;2024-03-22T07:28:41;36.92;;;23.60;;
11131;SDS011;5620;53.570;9.718;2024-03-22T07:31:07;41.50;;;21.80;;
11131;SDS011;5620;53.570;9.718;2024-03-22T07:33:33;38.30;;;25.20;;
11131;SDS011;5620;53.570;9.718;2024-03-22T07:36:02;29.80;;;17.20;;
11131;SDS011;5620;53.570;9.718;2024-03-22T07:38:28;36.85;;;20.63;;
11131;SDS011;5620;53.570;9.718;2024-03-22T07:40:53;40.43;;;23.93;;
11131;SDS011;5620;53.570;9.718;2024-03-22T07:43:19;36.95;;;23.60;;
11131;SDS011;5620;53.570;9.718;2024-03-22T07:45:44;30.60;;;20.03;;
11131;SDS011;5620;53.570;9.718;2024-03-22T07:48:10;42.00;;;24.77;;
11131;SDS011;5620;53.570;9.718;2024-03-22T07:50:35;33.08;;;20.73;;
11131;SDS011;5620;53.570;9.718;2024-03-22T07:53:01;32.80;;;20.07;;
11131;SDS011;5620;53.570;9.718;2024-03-22T07:55:27;34.70;;;19.57;;
11131;SDS011;5620;53.570;9.718;2024-03-22T07:57:52;40.42;;;24.15;;
11131;SDS011;5620;53.570;9.718;2024-03-22T08:00:18;36.83;;;23.90;;
11131;SDS011;5620;53.570;9.718;2024-03-22T08:02:43;28.80;;;19.27;;
11131;SDS011;5620;53.570;9.718;2024-03-22T08:05:09;25.07;;;14.43;;
11131;SDS011;5620;53.570;9.718;2024-03-22T08:07:35;31.90;;;18.93;;
11131;SDS011;5620;53.570;9.718;2024-03-22T08:10:00;40.38;;;24.00;;
11131;SDS011;5620;53.570;9.718;2024-03-22T08:12:26;42.27;;;23.23;;
11131;SDS011;5620;53.570;9.718;2024-03-22T08:14:51;31.75;;;20.35;;
11131;SDS011;5620;53.570;9.718;2024-03-22T08:17:17;38.72;;;22.63;;
11131;SDS011;5620;53.570;9.718;2024-03-22T08:19:42;41.63;;;22.93;;
11131;SDS011;5620;53.570;9.718;2024-03-22T08:22:08;35.80;;;22.53;;
11131;SDS011;5620;53.570;9.718;2024-03-22T08:24:34;43.65;;;23.90;;
11131;SDS011;5620;53.570;9.718;2024-03-22T08:26:59;36.27;;;21.70;;
11131;SDS011;5620;53.570;9.718;2024-03-22T08:29:25;40.73;;;22.67;;
11131;SDS011;5620;53.570;9.718;2024-03-22T08:31:50;35.03;;;21.20;;
11131;SDS011;5620;53.570;9.718;2024-03-22T08:34:16;33.20;;;20.60;;
11131;SDS011;5620;53.570;9.718;2024-03-22T08:36:41;41.93;;;24.30;;
11131;SDS011;5620;53.570;9.718;2024-03-22T08:39:07;37.85;;;20.63;;
11131;SDS011;5620;53.570;9.718;2024-03-22T08:41:32;40.93;;;22.37;;
11131;SDS011;5620;53.570;9.718;2024-03-22T08:43:58;33.90;;;20.70;;
11131;SDS011;5620;53.570;9.718;2024-03-22T08:46:23;39.58;;;22.30;;
11131;SDS011;5620;53.570;9.718;2024-03-22T08:48:49;35.20;;;21.58;;
11131;SDS011;5620;53.570;9.718;2024-03-22T08:51:14;42.73;;;24.57;;
11131;SDS011;5620;53.570;9.718;2024-03-22T08:53:40;36.50;;;23.70;;
11131;SDS011;5620;53.570;9.718;2024-03-22T08:56:05;45.67;;;23.83;;
11131;SDS011;5620;53.570;9.718;2024-03-22T08:58:31;35.93;;;23.27;;
11131;SDS011;5620;53.570;9.718;2024-03-22T09:00:56;39.50;;;23.57;;
11131;SDS011;5620;53.570;9.718;2024-03-22T09:03:22;41.28;;;22.58;;
11131;SDS011;5620;53.570;9.718;2024-03-22T09:05:47;39.37;;;23.60;;
11131;SDS011;5620;53.570;9.718;2024-03-22T09:08:17;49.17;;;24.73;;
11131;SDS011;5620;53.570;9.718;2024-03-22T09:10:43;37.97;;;24.03;;
11131;SDS011;5620;53.570;9.718;2024-03-22T09:13:08;23.20;;;16.67;;
11131;SDS011;5620;53.570;9.718;2024-03-22T09:15:34;37.15;;;21.85;;
11131;SDS011;5620;53.570;9.718;2024-03-22T09:17:59;42.03;;;23.37;;
11131;SDS011;5620;53.570;9.718;2024-03-22T09:20:25;35.90;;;21.20;;
11131;SDS011;5620;53.570;9.718;2024-03-22T09:22:50;41.13;;;23.58;;
11131;SDS011;5620;53.570;9.718;2024-03-22T09:25:16;32.20;;;18.27;;
11131;SDS011;5620;53.570;9.718;2024-03-22T09:27:41;34.33;;;20.77;;
11131;SDS011;5620;53.570;9.718;2024-03-22T09:30:07;29.53;;;16.47;;
11131;SDS011;5620;53.570;9.718;2024-03-22T09:32:33;32.25;;;19.77;;
11131;SDS011;5620;53.570;9.718;2024-03-22T09:34:58;32.55;;;20.27;;
11131;SDS011;5620;53.570;9.718;2024-03-22T09:37:24;28.80;;;18.58;;
11131;SDS011;5620;53.570;9.718;2024-03-22T09:39:49;27.77;;;16.50;;
11131;SDS011;5620;53.570;9.718;2024-03-22T09:42:18;30.23;;;17.97;;
11131;SDS011;5620;53.570;9.718;2024-03-22T09:44:47;24.65;;;14.77;;
11131;SDS011;5620;53.570;9.718;2024-03-22T09:47:17;33.35;;;18.45;;
11131;SDS011;5620;53.570;9.718;2024-03-22T09:49:43;30.45;;;17.92;;
11131;SDS011;5620;53.570;9.718;2024-03-22T09:52:09;24.70;;;16.67;;
11131;SDS011;5620;53.570;9.718;2024-03-22T09:54:36;21.85;;;14.65;;
11131;SDS011;5620;53.570;9.718;2024-03-22T09:57:02;17.20;;;12.68;;
11131;SDS011;5620;53.570;9.718;2024-03-22T09:59:28;26.13;;;14.88;;
11131;SDS011;5620;53.570;9.718;2024-03-22T10:01:54;25.20;;;14.47;;
11131;SDS011;5620;53.570;9.718;2024-03-22T10:04:20;16.92;;;11.43;;
11131;SDS011;5620;53.570;9.718;2024-03-22T10:06:46;19.27;;;12.20;;
11131;SDS011;5620;53.570;9.718;2024-03-22T10:09:12;23.13;;;14.45;;
11131;SDS011;5620;53.570;9.718;2024-03-22T10:11:37;12.60;;;9.77;;
11131;SDS011;5620;53.570;9.718;2024-03-22T10:14:03;17.23;;;12.98;;
11131;SDS011;5620;53.570;9.718;2024-03-22T10:16:32;17.93;;;11.53;;
11131;SDS011;5620;53.570;9.718;2024-03-22T10:18:59;22.98;;;12.63;;
11131;SDS011;5620;53.570;9.718;2024-03-22T10:21:24;12.23;;;10.30;;
11131;SDS011;5620;53.570;9.718;2024-03-22T10:23:50;14.60;;;10.70;;
11131;SDS011;5620;53.570;9.718;2024-03-22T10:28:54;14.77;;;12.30;;
11131;SDS011;5620;53.570;9.718;2024-03-22T10:31:20;13.83;;;9.97;;
11131;SDS011;5620;53.570;9.718;2024-03-22T10:33:46;12.52;;;10.38;;
11131;SDS011;5620;53.570;9.718;2024-03-22T10:36:12;10.10;;;8.80;;
11131;SDS011;5620;53.570;9.718;2024-03-22T10:38:38;12.23;;;7.67;;
11131;SDS011;5620;53.570;9.718;2024-03-22T10:41:04;10.13;;;8.57;;
11131;SDS011;5620;53.570;9.718;2024-03-22T10:43:30;11.80;;;6.87;;
11131;SDS011;5620;53.570;9.718;2024-03-22T10:45:56;7.22;;;6.47;;
11131;SDS011;5620;53.570;9.718;2024-03-22T10:48:26;8.50;;;7.65;;
11131;SDS011;5620;53.570;9.718;2024-03-22T10:50:54;10.88;;;7.80;;
11131;SDS011;5620;53.570;9.718;2024-03-22T10:53:23;7.72;;;6.55;;
11131;SDS011;5620;53.570;9.718;2024-03-22T10:55:50;8.17;;;7.30;;
11131;SDS011;5620;53.570;9.718;2024-03-22T10:58:18;7.10;;;6.50;;
11131;SDS011;5620;53.570;9.718;2024-03-22T11:00:47;14.32;;;7.20;;
11131;SDS011;5620;53.570;9.718;2024-03-22T11:03:12;7.82;;;6.72;;
11131;SDS011;5620;53.570;9.718;2024-03-22T11:05:48;7.30;;;6.60;;
11131;SDS011;5620;53.570;9.718;2024-03-22T11:08:22;7.65;;;6.85;;
11131;SDS011;5620;53.570;9.718;2024-03-22T11:10:49;5.93;;;5.43;;
11131;SDS011;5620;53.570;9.718;2024-03-22T11:13:15;6.67;;;6.17;;
11131;SDS011;5620;53.570;9.718;2024-03-22T11:15:42;7.10;;;6.60;;
11131;SDS011;5620;53.570;9.718;2024-03-22T11:18:07;6.27;;;5.77;;
11131;SDS011;5620;53.570;9.718;2024-03-22T11:20:35;5.93;;;5.53;;
11131;SDS011;5620;53.570;9.718;2024-03-22T11:23:01;6.10;;;5.27;;
11131;SDS011;5620;53.570;9.718;2024-03-22T11:25:29;5.22;;;4.82;;
11131;SDS011;5620;53.570;9.718;2024-03-22T11:27:57;4.30;;;3.95;;
11131;SDS011;5620;53.570;9.718;2024-03-22T11:30:29;6.13;;;5.53;;
11131;SDS011;5620;53.570;9.718;2024-03-22T11:32:56;5.22;;;4.72;;
11131;SDS011;5620;53.570;9.718;2024-03-22T11:35:22;5.90;;;5.40;;
11131;SDS011;5620;53.570;9.718;2024-03-22T11:37:48;5.57;;;5.15;;
11131;SDS011;5620;53.570;9.718;2024-03-22T11:40:14;7.03;;;6.40;;
11131;SDS011;5620;53.570;9.718;2024-03-22T11:42:41;6.13;;;5.63;;
11131;SDS011;5620;53.570;9.718;2024-03-22T11:45:11;5.45;;;5.05;;
11131;SDS011;5620;53.570;9.718;2024-03-22T11:47:38;4.27;;;3.83;;
11131;SDS011;5620;53.570;9.718;2024-03-22T11:50:04;4.95;;;4.60;;
11131;SDS011;5620;53.570;9.718;2024-03-22T11:52:30;4.13;;;3.83;;
11131;SDS011;5620;53.570;9.718;2024-03-22T11:54:55;7.13;;;5.68;;
11131;SDS011;5620;53.570;9.718;2024-03-22T11:57:24;5.00;;;4.50;;
11131;SDS011;5620;53.570;9.718;2024-03-22T11:59:50;4.80;;;4.37;;
11131;SDS011;5620;53.570;9.718;2024-03-22T12:02:16;3.88;;;3.58;;
11131;SDS011;5620;53.570;9.718;2024-03-22T12:04:45;5.18;;;4.07;;
11131;SDS011;5620;53.570;9.718;2024-03-22T12:07:14;5.72;;;5.22;;
11131;SDS011;5620;53.570;9.718;2024-03-22T12:09:41;4.60;;;4.20;;
11131;SDS011;5620;53.570;9.718;2024-03-22T12:12:07;4.30;;;3.87;;
11131;SDS011;5620;53.570;9.718;2024-03-22T12:14:34;4.40;;;4.00;;
11131;SDS011;5620;53.570;9.718;2024-03-22T12:17:01;5.43;;;4.10;;
11131;SDS011;5620;53.570;9.718;2024-03-22T12:19:27;4.95;;;4.50;;
11131;SDS011;5620;53.570;9.718;2024-03-22T12:21:53;6.00;;;5.40;;
11131;SDS011;5620;53.570;9.718;2024-03-22T12:24:19;3.20;;;3.00;;
11131;SDS011;5620;53.570;9.718;2024-03-22T12:26:44;3.23;;;2.93;;
11131;SDS011;5620;53.570;9.718;2024-03-22T12:29:10;4.83;;;2.80;;
11131;SDS011;5620;53.570;9.718;2024-03-22T12:31:37;2.85;;;2.65;;
11131;SDS011;5620;53.570;9.718;2024-03-22T12:34:02;7.65;;;2.45;;
11131;SDS011;5620;53.570;9.718;2024-03-22T12:36:28;3.33;;;3.13;;
11131;SDS011;5620;53.570;9.718;2024-03-22T12:38:54;2.03;;;1.93;;
11131;SDS011;5620;53.570;9.718;2024-03-22T12:41:19;3.28;;;2.20;;
11131;SDS011;5620;53.570;9.718;2024-03-22T12:43:45;2.63;;;2.00;;
11131;SDS011;5620;53.570;9.718;2024-03-22T12:46:10;2.33;;;2.10;;
11131;SDS011;5620;53.570;9.718;2024-03-22T12:48:36;1.67;;;1.58;;
11131;SDS011;5620;53.570;9.718;2024-03-22T12:51:01;3.70;;;1.93;;
11131;SDS011;5620;53.570;9.718;2024-03-22T12:53:27;1.95;;;1.80;;
11131;SDS011;5620;53.570;9.718;2024-03-22T12:55:52;1.58;;;1.48;;
11131;SDS011;5620;53.570;9.718;2024-03-22T12:58:18;1.73;;;1.63;;
11131;SDS011;5620;53.570;9.718;2024-03-22T13:00:44;1.70;;;1.27;;
11131;SDS011;5620;53.570;9.718;2024-03-22T13:03:09;1.35;;;1.27;;
11131;SDS011;5620;53.570;9.718;2024-03-22T13:05:35;1.30;;;1.20;;
11131;SDS011;5620;53.570;9.718;2024-03-22T13:08:00;1.57;;;1.47;;
11131;SDS011;5620;53.570;9.718;2024-03-22T13:10:26;1.30;;;1.25;;
11131;SDS011;5620;53.570;9.718;2024-03-22T13:12:51;1.30;;;1.30;;
11131;SDS011;5620;53.570;9.718;2024-03-22T13:15:17;1.37;;;1.20;;
11131;SDS011;5620;53.570;9.718;2024-03-22T13:17:42;1.70;;;1.30;;
11131;SDS011;5620;53.570;9.718;2024-03-22T13:20:08;1.50;;;1.27;;
11131;SDS011;5620;53.570;9.718;2024-03-22T13:22:34;1.50;;;1.05;;
11131;SDS011;5620;53.570;9.718;2024-03-22T13:24:59;1.23;;;1.13;;
11131;SDS011;5620;53.570;9.718;2024-03-22T13:27:25;1.77;;;1.67;;
11131;SDS011;5620;53.570;9.718;2024-03-22T13:29:50;9.13;;;8.23;;
11131;SDS011;5620;53.570;9.718;2024-03-22T13:32:16;5.20;;;1.60;;
11131;SDS011;5620;53.570;9.718;2024-03-22T13:34:41;1.40;;;1.30;;
11131;SDS011;5620;53.570;9.718;2024-03-22T13:37:07;1.05;;;0.93;;
11131;SDS011;5620;53.570;9.718;2024-03-22T13:39:32;1.33;;;1.23;;
11131;SDS011;5620;53.570;9.718;2024-03-22T13:41:58;1.40;;;1.30;;
11131;SDS011;5620;53.570;9.718;2024-03-22T13:44:24;1.00;;;1.00;;
11131;SDS011;5620;53.570;9.718;2024-03-22T13:46:50;1.30;;;1.20;;
11131;SDS011;5620;53.570;9.718;2024-03-22T13:49:16;1.50;;;1.08;;
11131;SDS011;5620;53.570;9.718;2024-03-22T13:51:43;2.08;;;1.05;;
11131;SDS011;5620;53.570;9.718;2024-03-22T13:54:09;0.68;;;0.68;;
11131;SDS011;5620;53.570;9.718;2024-03-22T13:56:36;0.85;;;0.85;;
11131;SDS011;5620;53.570;9.718;2024-03-22T13:59:02;1.00;;;1.00;;
11131;SDS011;5620;53.570;9.718;2024-03-22T14:01:27;1.57;;;1.43;;
11131;SDS011;5620;53.570;9.718;2024-03-22T14:03:53;2.72;;;2.53;;
11131;SDS011;5620;53.570;9.718;2024-03-22T14:06:18;1.55;;;1.17;;
11131;SDS011;5620;53.570;9.718;2024-03-22T14:08:44;1.13;;;1.07;;
11131;SDS011;5620;53.570;9.718;2024-03-22T14:11:09;4.73;;;1.00;;
11131;SDS011;5620;53.570;9.718;2024-03-22T14:13:35;3.63;;;1.50;;
11131;SDS011;5620;53.570;9.718;2024-03-22T14:16:00;3.03;;;1.63;;
11131;SDS011;5620;53.570;9.718;2024-03-22T14:18:26;2.60;;;1.43;;
11131;SDS011;5620;53.570;9.718;2024-03-22T14:20:51;2.95;;;1.50;;
11131;SDS011;5620;53.570;9.718;2024-03-22T14:23:17;6.23;;;2.57;;
11131;SDS011;5620;53.570;9.718;2024-03-22T14:25:42;2.70;;;1.53;;
11131;SDS011;5620;53.570;9.718;2024-03-22T14:28:08;6.50;;;1.63;;
11131;SDS011;5620;53.570;9.718;2024-03-22T14:30:33;8.33;;;1.80;;
11131;SDS011;5620;53.570;9.718;2024-03-22T14:32:59;7.40;;;2.27;;
11131;SDS011;5620;53.570;9.718;2024-03-22T14:35:24;2.67;;;1.83;;
11131;SDS011;5620;53.570;9.718;2024-03-22T14:37:50;5.03;;;2.20;;
11131;SDS011;5620;53.570;9.718;2024-03-22T14:40:15;7.63;;;2.10;;